Lebanon, Indiana
Current Conditions -  °F | °C
As of 1:55 PM on Sunday 23 Nov 2014 (Local Time) from KTYQ Reporting Station
Drizzle Drizzle  
Wind Chill: 51°   Ceiling: 2300
Heat Index: 51°   Visibility: 5mi
Dew Point: 47°   Wind: 8mph
Humidity: 87%   Direction: 150°SSE
Pressure: 29.66"   Gusts: NA
Location:  40.05°N, 86.47°W
Report Text: KTYQ 231855Z AUTO 15007KT 5SM DZ OVC023 11/09 A2966 RMK AO2 P0002 T01060085
Loading
Personal Weather Stations






























Interactive Weather Map New forecast layout! Learn more

10-Day Weather Forecast

Advertisements
Track Severe Weather on mobile